Aviation Digital Data Service (ADDS)

Output produced by METARs form (0348 UTC 07 February 2016)
found at http://aviationweather.gov/adds/metars/
 
KGON 070230Z 0703/0724 24008KT P6SM SCT250 
     FM070600 VRB04KT P6SM SKC 
     FM071900 13006KT P6SM BKN250 
     FM072200 09006KT P6SM BKN200